sensor_id;sensor_type;location;lat;lon;timestamp;temperature;humidity
21495;DHT22;10909;53.590;10.054;2023-05-16T00:01:55;14.50;57.90
21495;DHT22;10909;53.590;10.054;2023-05-16T00:04:21;14.40;57.30
21495;DHT22;10909;53.590;10.054;2023-05-16T00:06:47;14.40;57.70
21495;DHT22;10909;53.590;10.054;2023-05-16T00:09:13;14.40;57.70
21495;DHT22;10909;53.590;10.054;2023-05-16T00:11:39;14.40;57.40
21495;DHT22;10909;53.590;10.054;2023-05-16T00:14:07;14.40;57.40
21495;DHT22;10909;53.590;10.054;2023-05-16T00:16:32;14.40;57.30
21495;DHT22;10909;53.590;10.054;2023-05-16T00:19:02;14.50;57.30
21495;DHT22;10909;53.590;10.054;2023-05-16T00:21:28;14.50;57.60
21495;DHT22;10909;53.590;10.054;2023-05-16T00:23:54;14.50;57.30
21495;DHT22;10909;53.590;10.054;2023-05-16T00:26:20;14.60;57.90
21495;DHT22;10909;53.590;10.054;2023-05-16T00:28:46;14.60;57.10
21495;DHT22;10909;53.590;10.054;2023-05-16T00:31:12;14.60;57.00
21495;DHT22;10909;53.590;10.054;2023-05-16T00:33:38;14.60;57.50
21495;DHT22;10909;53.590;10.054;2023-05-16T00:36:03;14.60;57.70
21495;DHT22;10909;53.590;10.054;2023-05-16T00:38:29;14.50;57.30
21495;DHT22;10909;53.590;10.054;2023-05-16T00:40:55;14.60;57.20
21495;DHT22;10909;53.590;10.054;2023-05-16T00:43:22;14.60;57.20
21495;DHT22;10909;53.590;10.054;2023-05-16T00:45:50;14.50;57.50
21495;DHT22;10909;53.590;10.054;2023-05-16T00:48:16;14.60;57.20
21495;DHT22;10909;53.590;10.054;2023-05-16T00:50:41;14.60;57.60
21495;DHT22;10909;53.590;10.054;2023-05-16T00:53:07;14.60;57.70
21495;DHT22;10909;53.590;10.054;2023-05-16T00:55:35;14.60;57.70
21495;DHT22;10909;53.590;10.054;2023-05-16T00:58:05;14.60;57.30
21495;DHT22;10909;53.590;10.054;2023-05-16T01:00:35;14.60;57.50
21495;DHT22;10909;53.590;10.054;2023-05-16T01:03:06;14.60;57.40
21495;DHT22;10909;53.590;10.054;2023-05-16T01:05:35;14.60;57.50
21495;DHT22;10909;53.590;10.054;2023-05-16T01:08:02;14.60;57.10
21495;DHT22;10909;53.590;10.054;2023-05-16T01:10:37;14.60;57.60
21495;DHT22;10909;53.590;10.054;2023-05-16T01:13:11;14.70;57.40
21495;DHT22;10909;53.590;10.054;2023-05-16T01:16:01;14.70;57.50
21495;DHT22;10909;53.590;10.054;2023-05-16T01:19:02;14.70;57.70
21495;DHT22;10909;53.590;10.054;2023-05-16T01:21:48;14.70;58.20
21495;DHT22;10909;53.590;10.054;2023-05-16T01:24:32;14.80;57.60
21495;DHT22;10909;53.590;10.054;2023-05-16T01:27:03;14.80;57.60
21495;DHT22;10909;53.590;10.054;2023-05-16T01:29:32;14.80;57.30
21495;DHT22;10909;53.590;10.054;2023-05-16T01:31:57;14.70;57.10
21495;DHT22;10909;53.590;10.054;2023-05-16T01:34:23;14.70;57.30
21495;DHT22;10909;53.590;10.054;2023-05-16T01:39:55;14.60;57.60
21495;DHT22;10909;53.590;10.054;2023-05-16T01:42:26;14.70;58.40
21495;DHT22;10909;53.590;10.054;2023-05-16T01:45:22;14.70;57.70
21495;DHT22;10909;53.590;10.054;2023-05-16T01:48:21;14.80;58.20
21495;DHT22;10909;53.590;10.054;2023-05-16T01:51:03;14.70;58.20
21495;DHT22;10909;53.590;10.054;2023-05-16T01:53:39;14.70;58.20
21495;DHT22;10909;53.590;10.054;2023-05-16T01:56:14;14.70;58.50
21495;DHT22;10909;53.590;10.054;2023-05-16T01:58:41;14.70;58.60
21495;DHT22;10909;53.590;10.054;2023-05-16T02:01:13;14.60;58.90
21495;DHT22;10909;53.590;10.054;2023-05-16T02:03:39;14.60;58.60
21495;DHT22;10909;53.590;10.054;2023-05-16T02:06:06;14.50;58.20
21495;DHT22;10909;53.590;10.054;2023-05-16T02:08:32;14.50;58.10
21495;DHT22;10909;53.590;10.054;2023-05-16T02:10:58;14.50;58.20
21495;DHT22;10909;53.590;10.054;2023-05-16T02:13:25;14.50;58.30
21495;DHT22;10909;53.590;10.054;2023-05-16T02:15:51;14.50;58.30
21495;DHT22;10909;53.590;10.054;2023-05-16T02:18:17;14.50;58.10
21495;DHT22;10909;53.590;10.054;2023-05-16T02:20:44;14.50;58.10
21495;DHT22;10909;53.590;10.054;2023-05-16T02:23:14;14.40;58.40
21495;DHT22;10909;53.590;10.054;2023-05-16T02:25:41;14.40;58.10
21495;DHT22;10909;53.590;10.054;2023-05-16T02:28:06;14.40;58.30
21495;DHT22;10909;53.590;10.054;2023-05-16T02:30:33;14.40;57.80
21495;DHT22;10909;53.590;10.054;2023-05-16T02:32:59;14.40;57.70
21495;DHT22;10909;53.590;10.054;2023-05-16T02:35:25;14.40;58.20
21495;DHT22;10909;53.590;10.054;2023-05-16T02:37:55;14.40;58.10
21495;DHT22;10909;53.590;10.054;2023-05-16T02:40:27;14.40;57.80
21495;DHT22;10909;53.590;10.054;2023-05-16T02:42:54;14.30;58.00
21495;DHT22;10909;53.590;10.054;2023-05-16T02:45:20;14.40;58.20
21495;DHT22;10909;53.590;10.054;2023-05-16T02:47:46;14.40;58.00
21495;DHT22;10909;53.590;10.054;2023-05-16T02:50:12;14.30;58.00
21495;DHT22;10909;53.590;10.054;2023-05-16T02:52:38;14.30;57.90
21495;DHT22;10909;53.590;10.054;2023-05-16T02:55:04;14.30;57.80
21495;DHT22;10909;53.590;10.054;2023-05-16T02:57:35;14.30;57.80
21495;DHT22;10909;53.590;10.054;2023-05-16T03:00:02;14.30;57.70
21495;DHT22;10909;53.590;10.054;2023-05-16T03:02:30;14.30;57.60
21495;DHT22;10909;53.590;10.054;2023-05-16T03:04:56;14.30;57.70
21495;DHT22;10909;53.590;10.054;2023-05-16T03:07:22;14.40;57.50
21495;DHT22;10909;53.590;10.054;2023-05-16T03:09:50;14.20;57.80
21495;DHT22;10909;53.590;10.054;2023-05-16T03:12:20;14.30;57.80
21495;DHT22;10909;53.590;10.054;2023-05-16T03:14:47;14.20;57.70
21495;DHT22;10909;53.590;10.054;2023-05-16T03:17:14;14.20;57.90
21495;DHT22;10909;53.590;10.054;2023-05-16T03:19:39;14.20;58.10
21495;DHT22;10909;53.590;10.054;2023-05-16T03:22:06;14.10;58.00
21495;DHT22;10909;53.590;10.054;2023-05-16T03:24:35;14.20;58.50
21495;DHT22;10909;53.590;10.054;2023-05-16T03:27:02;14.10;57.90
21495;DHT22;10909;53.590;10.054;2023-05-16T03:29:29;14.20;58.00
21495;DHT22;10909;53.590;10.054;2023-05-16T03:31:55;14.20;58.00
21495;DHT22;10909;53.590;10.054;2023-05-16T03:34:21;14.10;57.50
21495;DHT22;10909;53.590;10.054;2023-05-16T03:36:51;14.20;57.70
21495;DHT22;10909;53.590;10.054;2023-05-16T03:39:16;14.20;57.70
21495;DHT22;10909;53.590;10.054;2023-05-16T03:41:43;14.20;57.80
21495;DHT22;10909;53.590;10.054;2023-05-16T03:44:08;14.10;57.70
21495;DHT22;10909;53.590;10.054;2023-05-16T03:46:34;14.10;57.70
21495;DHT22;10909;53.590;10.054;2023-05-16T03:49:02;14.10;57.50
21495;DHT22;10909;53.590;10.054;2023-05-16T03:51:28;14.10;57.50
21495;DHT22;10909;53.590;10.054;2023-05-16T03:53:55;14.10;57.50
21495;DHT22;10909;53.590;10.054;2023-05-16T03:56:20;14.10;57.60
21495;DHT22;10909;53.590;10.054;2023-05-16T03:58:47;14.10;57.80
21495;DHT22;10909;53.590;10.054;2023-05-16T04:01:13;14.00;57.40
21495;DHT22;10909;53.590;10.054;2023-05-16T04:03:38;14.00;57.30
21495;DHT22;10909;53.590;10.054;2023-05-16T04:06:05;14.00;57.70
21495;DHT22;10909;53.590;10.054;2023-05-16T04:08:31;14.00;57.60
21495;DHT22;10909;53.590;10.054;2023-05-16T04:10:59;14.00;57.40
21495;DHT22;10909;53.590;10.054;2023-05-16T04:13:24;14.00;57.50
21495;DHT22;10909;53.590;10.054;2023-05-16T04:15:50;13.90;57.50
21495;DHT22;10909;53.590;10.054;2023-05-16T04:18:16;13.90;57.80
21495;DHT22;10909;53.590;10.054;2023-05-16T04:20:42;13.90;57.40
21495;DHT22;10909;53.590;10.054;2023-05-16T04:23:08;13.90;57.50
21495;DHT22;10909;53.590;10.054;2023-05-16T04:25:36;13.90;57.60
21495;DHT22;10909;53.590;10.054;2023-05-16T04:28:02;13.80;57.80
21495;DHT22;10909;53.590;10.054;2023-05-16T04:30:28;13.90;57.50
21495;DHT22;10909;53.590;10.054;2023-05-16T04:32:54;13.80;57.50
21495;DHT22;10909;53.590;10.054;2023-05-16T04:35:21;13.80;57.70
21495;DHT22;10909;53.590;10.054;2023-05-16T04:37:47;13.90;57.70
21495;DHT22;10909;53.590;10.054;2023-05-16T04:40:14;13.90;57.40
21495;DHT22;10909;53.590;10.054;2023-05-16T04:42:39;13.90;57.50
21495;DHT22;10909;53.590;10.054;2023-05-16T04:45:07;13.90;57.40
21495;DHT22;10909;53.590;10.054;2023-05-16T04:47:43;13.90;57.50
21495;DHT22;10909;53.590;10.054;2023-05-16T04:50:12;13.90;57.50
21495;DHT22;10909;53.590;10.054;2023-05-16T04:52:45;13.90;57.20
21495;DHT22;10909;53.590;10.054;2023-05-16T04:55:11;13.80;57.00
21495;DHT22;10909;53.590;10.054;2023-05-16T04:57:41;13.80;57.10
21495;DHT22;10909;53.590;10.054;2023-05-16T05:00:09;14.00;57.10
21495;DHT22;10909;53.590;10.054;2023-05-16T05:02:37;13.80;56.80
21495;DHT22;10909;53.590;10.054;2023-05-16T05:05:11;13.80;56.70
21495;DHT22;10909;53.590;10.054;2023-05-16T05:07:40;13.80;56.80
21495;DHT22;10909;53.590;10.054;2023-05-16T05:10:06;13.70;56.50
21495;DHT22;10909;53.590;10.054;2023-05-16T05:12:33;13.70;56.50
21495;DHT22;10909;53.590;10.054;2023-05-16T05:15:00;13.60;56.40
21495;DHT22;10909;53.590;10.054;2023-05-16T05:17:28;13.70;56.50
21495;DHT22;10909;53.590;10.054;2023-05-16T05:19:54;13.60;56.40
21495;DHT22;10909;53.590;10.054;2023-05-16T05:22:21;13.60;56.50
21495;DHT22;10909;53.590;10.054;2023-05-16T05:24:49;13.60;56.60
21495;DHT22;10909;53.590;10.054;2023-05-16T05:27:18;13.60;56.60
21495;DHT22;10909;53.590;10.054;2023-05-16T05:29:44;13.60;56.50
21495;DHT22;10909;53.590;10.054;2023-05-16T05:32:10;13.60;56.50
21495;DHT22;10909;53.590;10.054;2023-05-16T05:34:36;13.60;56.60
21495;DHT22;10909;53.590;10.054;2023-05-16T05:37:03;13.70;56.50
21495;DHT22;10909;53.590;10.054;2023-05-16T05:39:32;13.70;56.40
21495;DHT22;10909;53.590;10.054;2023-05-16T05:41:57;13.70;56.30
21495;DHT22;10909;53.590;10.054;2023-05-16T05:44:24;13.70;56.30
21495;DHT22;10909;53.590;10.054;2023-05-16T05:46:50;13.70;56.80
21495;DHT22;10909;53.590;10.054;2023-05-16T05:49:15;13.80;56.20
21495;DHT22;10909;53.590;10.054;2023-05-16T05:51:41;13.80;56.10
21495;DHT22;10909;53.590;10.054;2023-05-16T05:54:07;13.80;56.10
21495;DHT22;10909;53.590;10.054;2023-05-16T05:56:33;13.80;56.00
21495;DHT22;10909;53.590;10.054;2023-05-16T05:58:59;13.80;56.00
21495;DHT22;10909;53.590;10.054;2023-05-16T06:01:25;13.80;55.90
21495;DHT22;10909;53.590;10.054;2023-05-16T06:03:51;13.90;55.90
21495;DHT22;10909;53.590;10.054;2023-05-16T06:06:17;13.90;55.90
21495;DHT22;10909;53.590;10.054;2023-05-16T06:08:43;13.90;55.80
21495;DHT22;10909;53.590;10.054;2023-05-16T06:11:09;13.90;55.70
21495;DHT22;10909;53.590;10.054;2023-05-16T06:13:34;13.90;55.60
21495;DHT22;10909;53.590;10.054;2023-05-16T06:16:07;13.90;55.30
21495;DHT22;10909;53.590;10.054;2023-05-16T06:18:34;13.90;55.30
21495;DHT22;10909;53.590;10.054;2023-05-16T06:21:00;13.90;55.10
21495;DHT22;10909;53.590;10.054;2023-05-16T06:23:25;13.90;54.80
21495;DHT22;10909;53.590;10.054;2023-05-16T06:36:06;14.00;54.90
21495;DHT22;10909;53.590;10.054;2023-05-16T06:38:53;14.10;54.90
21495;DHT22;10909;53.590;10.054;2023-05-16T06:41:22;14.20;54.80
21495;DHT22;10909;53.590;10.054;2023-05-16T06:43:48;14.30;54.70
21495;DHT22;10909;53.590;10.054;2023-05-16T06:46:16;14.30;54.50
21495;DHT22;10909;53.590;10.054;2023-05-16T06:49:15;14.40;54.50
21495;DHT22;10909;53.590;10.054;2023-05-16T06:52:05;14.50;54.50
21495;DHT22;10909;53.590;10.054;2023-05-16T06:54:37;14.50;54.60
21495;DHT22;10909;53.590;10.054;2023-05-16T06:57:28;14.50;54.50
21495;DHT22;10909;53.590;10.054;2023-05-16T07:00:11;14.30;54.40
21495;DHT22;10909;53.590;10.054;2023-05-16T07:02:43;14.50;54.50
21495;DHT22;10909;53.590;10.054;2023-05-16T07:05:31;14.60;54.50
21495;DHT22;10909;53.590;10.054;2023-05-16T07:11:47;14.70;54.30
21495;DHT22;10909;53.590;10.054;2023-05-16T07:14:15;14.60;54.10
21495;DHT22;10909;53.590;10.054;2023-05-16T07:16:41;14.70;53.80
21495;DHT22;10909;53.590;10.054;2023-05-16T07:19:07;14.70;53.80
21495;DHT22;10909;53.590;10.054;2023-05-16T07:21:32;14.70;53.80
21495;DHT22;10909;53.590;10.054;2023-05-16T07:23:58;14.70;53.70
21495;DHT22;10909;53.590;10.054;2023-05-16T07:26:24;14.70;52.90
21495;DHT22;10909;53.590;10.054;2023-05-16T07:28:51;14.70;53.00
21495;DHT22;10909;53.590;10.054;2023-05-16T07:31:17;14.70;53.10
21495;DHT22;10909;53.590;10.054;2023-05-16T07:33:43;14.70;53.30
21495;DHT22;10909;53.590;10.054;2023-05-16T07:36:11;14.70;53.40
21495;DHT22;10909;53.590;10.054;2023-05-16T07:38:37;14.70;53.40
21495;DHT22;10909;53.590;10.054;2023-05-16T07:41:03;14.70;53.40
21495;DHT22;10909;53.590;10.054;2023-05-16T07:43:28;14.80;53.10
21495;DHT22;10909;53.590;10.054;2023-05-16T07:45:54;14.80;52.90
21495;DHT22;10909;53.590;10.054;2023-05-16T07:48:24;14.90;52.90
21495;DHT22;10909;53.590;10.054;2023-05-16T07:50:51;15.00;52.80
21495;DHT22;10909;53.590;10.054;2023-05-16T07:53:17;15.00;52.40
21495;DHT22;10909;53.590;10.054;2023-05-16T07:55:42;15.10;52.40
21495;DHT22;10909;53.590;10.054;2023-05-16T07:58:08;15.20;52.20
21495;DHT22;10909;53.590;10.054;2023-05-16T08:00:34;15.20;51.60
21495;DHT22;10909;53.590;10.054;2023-05-16T08:02:59;15.30;51.00
21495;DHT22;10909;53.590;10.054;2023-05-16T08:05:25;15.30;50.80
21495;DHT22;10909;53.590;10.054;2023-05-16T08:07:52;15.30;50.60
21495;DHT22;10909;53.590;10.054;2023-05-16T08:10:19;15.30;50.20
21495;DHT22;10909;53.590;10.054;2023-05-16T08:12:47;15.30;50.50
21495;DHT22;10909;53.590;10.054;2023-05-16T08:15:14;15.30;50.00
21495;DHT22;10909;53.590;10.054;2023-05-16T08:17:40;15.30;50.10
21495;DHT22;10909;53.590;10.054;2023-05-16T08:20:06;15.30;50.30
21495;DHT22;10909;53.590;10.054;2023-05-16T08:22:32;15.40;50.30
21495;DHT22;10909;53.590;10.054;2023-05-16T08:24:58;15.40;50.40
21495;DHT22;10909;53.590;10.054;2023-05-16T08:27:27;15.50;50.60
21495;DHT22;10909;53.590;10.054;2023-05-16T08:29:53;15.60;50.50
21495;DHT22;10909;53.590;10.054;2023-05-16T08:32:18;15.70;50.00
21495;DHT22;10909;53.590;10.054;2023-05-16T08:34:44;15.70;50.20
21495;DHT22;10909;53.590;10.054;2023-05-16T08:37:10;15.70;50.00
21495;DHT22;10909;53.590;10.054;2023-05-16T08:39:38;15.70;49.80
21495;DHT22;10909;53.590;10.054;2023-05-16T08:42:04;15.70;49.90
21495;DHT22;10909;53.590;10.054;2023-05-16T08:44:30;15.70;49.90
21495;DHT22;10909;53.590;10.054;2023-05-16T08:46:56;15.70;49.70
21495;DHT22;10909;53.590;10.054;2023-05-16T08:49:26;15.70;49.70
21495;DHT22;10909;53.590;10.054;2023-05-16T08:51:56;15.70;50.20
21495;DHT22;10909;53.590;10.054;2023-05-16T08:54:23;15.80;51.00
21495;DHT22;10909;53.590;10.054;2023-05-16T08:56:48;15.80;49.60
21495;DHT22;10909;53.590;10.054;2023-05-16T08:59:15;15.90;48.60
21495;DHT22;10909;53.590;10.054;2023-05-16T09:01:41;15.90;48.30
21495;DHT22;10909;53.590;10.054;2023-05-16T09:04:08;15.90;47.30
21495;DHT22;10909;53.590;10.054;2023-05-16T09:06:37;16.00;47.80
21495;DHT22;10909;53.590;10.054;2023-05-16T09:09:20;16.00;47.10
21495;DHT22;10909;53.590;10.054;2023-05-16T09:11:46;16.00;47.90
21495;DHT22;10909;53.590;10.054;2023-05-16T09:14:12;16.10;47.90
21495;DHT22;10909;53.590;10.054;2023-05-16T09:16:39;16.10;47.60
21495;DHT22;10909;53.590;10.054;2023-05-16T09:19:05;16.10;48.10
21495;DHT22;10909;53.590;10.054;2023-05-16T09:21:32;16.20;48.50
21495;DHT22;10909;53.590;10.054;2023-05-16T09:24:03;16.20;48.00
21495;DHT22;10909;53.590;10.054;2023-05-16T09:26:32;16.30;47.90
21495;DHT22;10909;53.590;10.054;2023-05-16T09:28:58;16.20;48.00
21495;DHT22;10909;53.590;10.054;2023-05-16T09:31:25;16.20;48.00
21495;DHT22;10909;53.590;10.054;2023-05-16T09:33:52;16.20;48.00
21495;DHT22;10909;53.590;10.054;2023-05-16T09:36:18;16.20;48.30
21495;DHT22;10909;53.590;10.054;2023-05-16T09:38:44;16.20;48.40
21495;DHT22;10909;53.590;10.054;2023-05-16T09:41:10;16.20;47.80
21495;DHT22;10909;53.590;10.054;2023-05-16T09:43:41;16.20;47.80
21495;DHT22;10909;53.590;10.054;2023-05-16T09:46:11;16.20;48.00
21495;DHT22;10909;53.590;10.054;2023-05-16T09:48:40;16.10;48.30
21495;DHT22;10909;53.590;10.054;2023-05-16T09:51:07;16.20;48.00
21495;DHT22;10909;53.590;10.054;2023-05-16T09:53:33;16.20;47.60
21495;DHT22;10909;53.590;10.054;2023-05-16T09:56:12;16.20;46.80
21495;DHT22;10909;53.590;10.054;2023-05-16T09:58:39;16.30;46.10
21495;DHT22;10909;53.590;10.054;2023-05-16T10:01:06;16.30;46.40
21495;DHT22;10909;53.590;10.054;2023-05-16T10:03:37;16.40;46.10
21495;DHT22;10909;53.590;10.054;2023-05-16T10:06:03;16.40;46.00
21495;DHT22;10909;53.590;10.054;2023-05-16T10:08:33;16.50;45.70
21495;DHT22;10909;53.590;10.054;2023-05-16T10:11:04;16.50;46.20
21495;DHT22;10909;53.590;10.054;2023-05-16T10:13:33;16.50;46.40
21495;DHT22;10909;53.590;10.054;2023-05-16T10:16:00;16.60;46.70
21495;DHT22;10909;53.590;10.054;2023-05-16T10:18:31;16.40;46.40
21495;DHT22;10909;53.590;10.054;2023-05-16T10:21:07;16.50;46.60
21495;DHT22;10909;53.590;10.054;2023-05-16T10:23:40;16.50;46.70
21495;DHT22;10909;53.590;10.054;2023-05-16T10:26:08;16.50;47.10
21495;DHT22;10909;53.590;10.054;2023-05-16T10:31:05;16.60;47.50
21495;DHT22;10909;53.590;10.054;2023-05-16T10:33:37;16.70;47.60
21495;DHT22;10909;53.590;10.054;2023-05-16T10:36:06;16.70;47.40
21495;DHT22;10909;53.590;10.054;2023-05-16T10:38:34;16.80;47.10
21495;DHT22;10909;53.590;10.054;2023-05-16T10:41:02;16.70;46.80
21495;DHT22;10909;53.590;10.054;2023-05-16T10:43:30;16.70;46.20
21495;DHT22;10909;53.590;10.054;2023-05-16T10:46:06;16.70;46.60
21495;DHT22;10909;53.590;10.054;2023-05-16T10:48:43;16.70;46.10
21495;DHT22;10909;53.590;10.054;2023-05-16T11:01:34;16.70;45.00
21495;DHT22;10909;53.590;10.054;2023-05-16T11:04:21;16.70;45.10
21495;DHT22;10909;53.590;10.054;2023-05-16T11:07:43;16.60;45.50
21495;DHT22;10909;53.590;10.054;2023-05-16T11:10:20;16.60;45.60
21495;DHT22;10909;53.590;10.054;2023-05-16T11:12:51;16.60;46.50
21495;DHT22;10909;53.590;10.054;2023-05-16T11:15:31;16.60;46.60
21495;DHT22;10909;53.590;10.054;2023-05-16T11:18:16;16.60;45.40
21495;DHT22;10909;53.590;10.054;2023-05-16T11:20:44;16.60;45.20
21495;DHT22;10909;53.590;10.054;2023-05-16T11:25:42;16.50;45.00
21495;DHT22;10909;53.590;10.054;2023-05-16T11:28:11;16.50;45.40
21495;DHT22;10909;53.590;10.054;2023-05-16T11:30:47;16.50;45.20
21495;DHT22;10909;53.590;10.054;2023-05-16T11:33:17;16.50;44.90
21495;DHT22;10909;53.590;10.054;2023-05-16T11:35:44;16.60;45.10
21495;DHT22;10909;53.590;10.054;2023-05-16T11:38:25;16.50;44.60
21495;DHT22;10909;53.590;10.054;2023-05-16T11:40:52;16.50;44.90
21495;DHT22;10909;53.590;10.054;2023-05-16T11:43:18;16.40;44.90
21495;DHT22;10909;53.590;10.054;2023-05-16T11:45:43;16.50;44.00
21495;DHT22;10909;53.590;10.054;2023-05-16T11:48:10;16.40;44.10
21495;DHT22;10909;53.590;10.054;2023-05-16T11:50:36;16.40;44.10
21495;DHT22;10909;53.590;10.054;2023-05-16T11:53:03;16.40;44.60
21495;DHT22;10909;53.590;10.054;2023-05-16T11:55:29;16.40;44.90
21495;DHT22;10909;53.590;10.054;2023-05-16T11:57:57;16.50;45.20
21495;DHT22;10909;53.590;10.054;2023-05-16T12:00:24;16.50;45.10
21495;DHT22;10909;53.590;10.054;2023-05-16T12:02:51;16.50;44.70
21495;DHT22;10909;53.590;10.054;2023-05-16T12:05:19;16.50;44.60
21495;DHT22;10909;53.590;10.054;2023-05-16T12:07:46;16.60;44.60
21495;DHT22;10909;53.590;10.054;2023-05-16T12:10:15;16.50;44.70
21495;DHT22;10909;53.590;10.054;2023-05-16T12:12:45;16.60;44.80
21495;DHT22;10909;53.590;10.054;2023-05-16T12:15:12;16.70;44.60
21495;DHT22;10909;53.590;10.054;2023-05-16T12:17:40;16.70;44.80
21495;DHT22;10909;53.590;10.054;2023-05-16T12:20:09;16.80;45.00
21495;DHT22;10909;53.590;10.054;2023-05-16T12:22:41;16.80;45.00
21495;DHT22;10909;53.590;10.054;2023-05-16T12:25:30;16.80;44.90
21495;DHT22;10909;53.590;10.054;2023-05-16T12:28:08;16.90;45.30
21495;DHT22;10909;53.590;10.054;2023-05-16T12:30:43;17.00;44.20
21495;DHT22;10909;53.590;10.054;2023-05-16T12:33:14;17.10;44.70
21495;DHT22;10909;53.590;10.054;2023-05-16T12:39:02;17.60;44.40
21495;DHT22;10909;53.590;10.054;2023-05-16T12:41:30;17.90;44.90
21495;DHT22;10909;53.590;10.054;2023-05-16T12:44:28;18.10;45.00
21495;DHT22;10909;53.590;10.054;2023-05-16T12:46:54;18.40;42.50
21495;DHT22;10909;53.590;10.054;2023-05-16T12:49:44;18.60;44.20
21495;DHT22;10909;53.590;10.054;2023-05-16T12:52:20;18.90;43.80
21495;DHT22;10909;53.590;10.054;2023-05-16T12:54:53;19.10;43.30
21495;DHT22;10909;53.590;10.054;2023-05-16T12:57:20;19.20;43.50
21495;DHT22;10909;53.590;10.054;2023-05-16T12:59:56;19.30;43.90
21495;DHT22;10909;53.590;10.054;2023-05-16T13:11:49;19.70;42.60
21495;DHT22;10909;53.590;10.054;2023-05-16T13:16:52;19.10;43.90
21495;DHT22;10909;53.590;10.054;2023-05-16T13:19:25;18.40;45.90
21495;DHT22;10909;53.590;10.054;2023-05-16T13:22:15;18.20;46.40
21495;DHT22;10909;53.590;10.054;2023-05-16T13:24:43;18.10;47.60
21495;DHT22;10909;53.590;10.054;2023-05-16T13:27:25;18.20;47.70
21495;DHT22;10909;53.590;10.054;2023-05-16T13:30:17;18.40;47.90
21495;DHT22;10909;53.590;10.054;2023-05-16T13:32:55;18.70;47.30
21495;DHT22;10909;53.590;10.054;2023-05-16T13:35:28;18.90;46.10
21495;DHT22;10909;53.590;10.054;2023-05-16T13:37:58;19.00;45.70
21495;DHT22;10909;53.590;10.054;2023-05-16T13:43:51;19.30;45.20
21495;DHT22;10909;53.590;10.054;2023-05-16T13:46:39;19.50;45.40
21495;DHT22;10909;53.590;10.054;2023-05-16T13:49:20;19.70;44.10
21495;DHT22;10909;53.590;10.054;2023-05-16T13:51:54;19.90;43.80
21495;DHT22;10909;53.590;10.054;2023-05-16T13:54:42;20.00;43.00
21495;DHT22;10909;53.590;10.054;2023-05-16T13:57:22;20.00;41.60
21495;DHT22;10909;53.590;10.054;2023-05-16T14:00:03;20.00;40.70
21495;DHT22;10909;53.590;10.054;2023-05-16T14:02:40;20.10;41.40
21495;DHT22;10909;53.590;10.054;2023-05-16T14:14:07;19.80;40.60
21495;DHT22;10909;53.590;10.054;2023-05-16T14:20:16;20.00;40.30
21495;DHT22;10909;53.590;10.054;2023-05-16T14:22:56;20.10;40.00
21495;DHT22;10909;53.590;10.054;2023-05-16T14:25:28;20.20;40.30
21495;DHT22;10909;53.590;10.054;2023-05-16T14:30:29;20.60;40.60
21495;DHT22;10909;53.590;10.054;2023-05-16T14:35:35;21.00;39.70
21495;DHT22;10909;53.590;10.054;2023-05-16T14:38:03;21.20;40.70
21495;DHT22;10909;53.590;10.054;2023-05-16T14:40:32;21.40;40.40
21495;DHT22;10909;53.590;10.054;2023-05-16T14:43:04;21.60;40.00
21495;DHT22;10909;53.590;10.054;2023-05-16T14:45:30;21.70;38.70
21495;DHT22;10909;53.590;10.054;2023-05-16T14:47:55;21.60;37.60
21495;DHT22;10909;53.590;10.054;2023-05-16T14:50:24;21.40;37.70
21495;DHT22;10909;53.590;10.054;2023-05-16T14:52:50;21.20;36.90
21495;DHT22;10909;53.590;10.054;2023-05-16T14:56:00;20.90;36.80
21495;DHT22;10909;53.590;10.054;2023-05-16T14:58:42;20.70;36.40
21495;DHT22;10909;53.590;10.054;2023-05-16T15:01:15;20.40;37.70
21495;DHT22;10909;53.590;10.054;2023-05-16T15:03:43;20.40;37.80
21495;DHT22;10909;53.590;10.054;2023-05-16T15:06:10;20.40;37.90
21495;DHT22;10909;53.590;10.054;2023-05-16T15:08:36;20.40;37.20
21495;DHT22;10909;53.590;10.054;2023-05-16T15:11:03;20.20;37.30
21495;DHT22;10909;53.590;10.054;2023-05-16T15:13:28;20.10;37.30
21495;DHT22;10909;53.590;10.054;2023-05-16T15:15:54;19.80;36.80
21495;DHT22;10909;53.590;10.054;2023-05-16T15:18:20;19.50;37.20
21495;DHT22;10909;53.590;10.054;2023-05-16T15:20:47;19.20;37.90
21495;DHT22;10909;53.590;10.054;2023-05-16T15:23:13;19.00;38.30
21495;DHT22;10909;53.590;10.054;2023-05-16T15:25:38;18.90;39.40
21495;DHT22;10909;53.590;10.054;2023-05-16T15:28:04;18.80;39.70
21495;DHT22;10909;53.590;10.054;2023-05-16T15:30:29;18.80;40.10
21495;DHT22;10909;53.590;10.054;2023-05-16T15:32:55;18.80;40.70
21495;DHT22;10909;53.590;10.054;2023-05-16T15:35:21;18.90;41.00
21495;DHT22;10909;53.590;10.054;2023-05-16T15:37:46;18.90;40.80
21495;DHT22;10909;53.590;10.054;2023-05-16T15:40:13;18.80;40.50
21495;DHT22;10909;53.590;10.054;2023-05-16T15:42:38;18.70;40.60
21495;DHT22;10909;53.590;10.054;2023-05-16T15:45:07;18.50;40.50
21495;DHT22;10909;53.590;10.054;2023-05-16T15:47:32;18.30;40.80
21495;DHT22;10909;53.590;10.054;2023-05-16T15:49:58;18.00;41.10
21495;DHT22;10909;53.590;10.054;2023-05-16T15:52:24;17.80;41.60
21495;DHT22;10909;53.590;10.054;2023-05-16T15:54:50;17.50;42.20
21495;DHT22;10909;53.590;10.054;2023-05-16T15:57:15;17.30;42.70
21495;DHT22;10909;53.590;10.054;2023-05-16T15:59:41;17.20;43.50
21495;DHT22;10909;53.590;10.054;2023-05-16T16:02:07;17.20;43.60
21495;DHT22;10909;53.590;10.054;2023-05-16T16:04:33;17.10;44.20
21495;DHT22;10909;53.590;10.054;2023-05-16T16:06:58;17.10;44.50
21495;DHT22;10909;53.590;10.054;2023-05-16T16:09:24;17.10;44.50
21495;DHT22;10909;53.590;10.054;2023-05-16T16:11:50;17.10;44.60
21495;DHT22;10909;53.590;10.054;2023-05-16T16:14:21;17.10;45.10
21495;DHT22;10909;53.590;10.054;2023-05-16T16:16:46;17.10;44.70
21495;DHT22;10909;53.590;10.054;2023-05-16T16:19:12;17.10;44.80
21495;DHT22;10909;53.590;10.054;2023-05-16T16:21:39;17.20;44.90
21495;DHT22;10909;53.590;10.054;2023-05-16T16:24:06;17.20;44.60
21495;DHT22;10909;53.590;10.054;2023-05-16T16:26:33;17.10;44.50
21495;DHT22;10909;53.590;10.054;2023-05-16T16:28:59;17.10;44.90
21495;DHT22;10909;53.590;10.054;2023-05-16T16:31:25;17.00;44.90
21495;DHT22;10909;53.590;10.054;2023-05-16T16:33:50;17.10;45.00
21495;DHT22;10909;53.590;10.054;2023-05-16T16:36:16;17.10;44.80
21495;DHT22;10909;53.590;10.054;2023-05-16T16:38:42;17.10;44.70